Time;durP1;ratioP1;P1;durP2;ratioP2;P2;SDS_P1;SDS_P2;PMS_P1;PMS_P2;Temp;Humidity;BMP_temperature;BMP_pressure;BME280_temperature;BME280_humidity;BME280_pressure;Samples;Min_cycle;Max_cycle;Signal;HPM_P1;HPM_P2
2021/03/12 07:11:27;;;;;;;17.83;11.20;;;;;;;;;;5076309;28;20886;-64
2021/03/12 07:13:54;;;;;;;16.23;9.82;;;;;;;;;;5081358;28;20021;-66
2021/03/12 07:16:19;;;;;;;22.80;11.07;;;;;;;;;;5081361;28;20051;-63
2021/03/12 07:18:45;;;;;;;17.83;10.05;;;;;;;;;;5077958;28;20014;-65
2021/03/12 07:21:11;;;;;;;18.92;10.55;;;;;;;;;;5073867;28;20480;-67
2021/03/12 07:23:39;;;;;;;17.20;10.20;;;;;;;;;;5075308;28;20013;-65
2021/03/12 07:26:06;;;;;;;13.70;9.35;;;;;;;;;;5079623;28;20091;-66
2021/03/12 07:28:32;;;;;;;16.23;9.05;;;;;;;;;;5079129;28;20469;-65
2021/03/12 07:30:59;;;;;;;15.27;9.00;;;;;;;;;;5054544;28;20078;-64
2021/03/12 07:33:26;;;;;;;11.88;8.35;;;;;;;;;;5068870;28;20107;-65
2021/03/12 07:35:54;;;;;;;13.63;8.50;;;;;;;;;;5087160;28;20016;-64
2021/03/12 07:38:21;;;;;;;15.35;8.75;;;;;;;;;;5075594;28;20024;-63
2021/03/12 07:40:47;;;;;;;13.15;8.02;;;;;;;;;;5067805;28;20036;-63
2021/03/12 07:43:14;;;;;;;12.85;8.05;;;;;;;;;;5068023;28;20013;-62
2021/03/12 07:45:41;;;;;;;12.65;7.88;;;;;;;;;;5067489;28;20019;-62
2021/03/12 07:48:08;;;;;;;16.05;7.90;;;;;;;;;;5066050;28;20024;-62
2021/03/12 07:50:36;;;;;;;15.07;7.68;;;;;;;;;;5079512;28;20024;-63
2021/03/12 07:53:02;;;;;;;12.90;8.27;;;;;;;;;;5086827;28;20032;-62
2021/03/12 07:55:48;;;;;;;17.67;8.52;;;;;;;;;;5088022;28;20036;-62
2021/03/12 07:58:34;;;;;;;12.70;7.53;;;;;;;;;;5086428;28;20032;-62
2021/03/12 08:00:59;;;;;;;14.68;8.52;;;;;;;;;;5071397;28;20321;-62
2021/03/12 08:03:29;;;;;;;17.65;9.23;;;;;;;;;;5080820;28;20045;-62
2021/03/12 08:05:54;;;;;;;;;;;;;;;;;;5069249;28;20124;-68
2021/03/12 08:08:29;;;;;;;16.95;8.50;;;;;;;;;;5046694;28;19996;-68
2021/03/12 08:11:04;;;;;;;11.57;7.20;;;;;;;;;;5047349;28;20079;-67
2021/03/12 08:13:30;;;;;;;13.98;7.60;;;;;;;;;;5047114;28;20441;-67
2021/03/12 08:16:05;;;;;;;12.98;6.88;;;;;;;;;;5055701;28;20021;-68
2021/03/12 08:18:30;;;;;;;17.70;7.07;;;;;;;;;;5040046;28;20021;-68
2021/03/12 08:20:55;;;;;;;10.20;6.90;;;;;;;;;;5063038;28;20078;-68
2021/03/12 08:23:31;;;;;;;8.68;6.03;;;;;;;;;;5047662;28;20020;-68
2021/03/12 08:25:56;;;;;;;14.35;7.22;;;;;;;;;;5050576;28;20020;-69
2021/03/12 08:28:24;;;;;;;11.55;7.53;;;;;;;;;;5041308;28;20427;-69
2021/03/12 08:30:51;;;;;;;10.13;6.93;;;;;;;;;;5052273;28;20029;-69
2021/03/12 08:33:26;;;;;;;13.73;6.72;;;;;;;;;;5046067;28;20024;-68
2021/03/12 08:35:53;;;;;;;12.50;5.72;;;;;;;;;;5062790;28;20016;-69
2021/03/12 08:38:28;;;;;;;8.63;5.22;;;;;;;;;;5059124;28;20010;-68
2021/03/12 08:40:55;;;;;;;7.85;5.35;;;;;;;;;;5073984;28;20373;-68
2021/03/12 08:43:21;;;;;;;8.80;4.45;;;;;;;;;;5056924;28;20025;-67
2021/03/12 08:45:48;;;;;;;5.90;4.00;;;;;;;;;;5052137;28;20188;-68
2021/03/12 08:48:15;;;;;;;7.32;5.32;;;;;;;;;;5052123;28;20028;-67
2021/03/12 08:50:43;;;;;;;7.32;4.00;;;;;;;;;;5017748;28;20080;-67
2021/03/12 08:53:13;;;;;;;9.75;3.50;;;;;;;;;;5032639;28;20096;-67
2021/03/12 08:55:42;;;;;;;7.55;4.22;;;;;;;;;;5033701;28;20036;-68
2021/03/12 08:58:17;;;;;;;5.25;3.75;;;;;;;;;;5032962;28;20573;-67
2021/03/12 09:00:43;;;;;;;7.82;3.45;;;;;;;;;;5033261;28;20112;-67
2021/03/12 09:03:18;;;;;;;4.90;2.90;;;;;;;;;;5016019;28;20017;-67
2021/03/12 09:05:44;;;;;;;7.72;2.35;;;;;;;;;;5033856;28;20021;-67
2021/03/12 09:08:09;;;;;;;10.77;3.03;;;;;;;;;;5014964;28;20571;-67
2021/03/12 09:10:35;;;;;;;5.97;3.17;;;;;;;;;;5047156;28;20044;-67
2021/03/12 09:13:00;;;;;;;5.47;2.72;;;;;;;;;;5040587;28;20103;-67
2021/03/12 09:15:26;;;;;;;4.88;2.35;;;;;;;;;;5037762;28;20499;-67
2021/03/12 09:17:56;;;;;;;3.75;3.05;;;;;;;;;;5045019;28;20013;-67
2021/03/12 09:20:22;;;;;;;5.07;3.13;;;;;;;;;;5040414;28;20466;-67
2021/03/12 09:22:49;;;;;;;13.32;3.58;;;;;;;;;;5045817;28;20031;-67
2021/03/12 09:25:22;;;;;;;6.47;3.00;;;;;;;;;;5046255;28;20422;-67
2021/03/12 09:27:57;;;;;;;7.72;3.50;;;;;;;;;;5026378;28;20082;-67
2021/03/12 09:30:23;;;;;;;3.30;2.80;;;;;;;;;;5045871;28;20079;-66
2021/03/12 09:32:49;;;;;;;6.55;3.60;;;;;;;;;;5039509;28;20086;-69
2021/03/12 09:35:15;;;;;;;18.02;4.00;;;;;;;;;;5027686;28;20477;-67
2021/03/12 09:37:41;;;;;;;8.30;3.20;;;;;;;;;;5024416;28;20497;-67
2021/03/12 09:40:07;;;;;;;7.55;3.60;;;;;;;;;;5039907;28;20081;-65
2021/03/12 09:42:33;;;;;;;11.43;4.55;;;;;;;;;;5042825;28;20059;-67
2021/03/12 09:44:58;;;;;;;6.80;3.92;;;;;;;;;;5043108;28;20572;-66
2021/03/12 09:47:23;;;;;;;6.85;4.45;;;;;;;;;;5043675;28;20035;-65
2021/03/12 09:49:50;;;;;;;9.50;4.07;;;;;;;;;;5043814;28;20037;-67
2021/03/12 09:52:16;;;;;;;15.73;3.85;;;;;;;;;;5040514;28;20305;-66
2021/03/12 09:54:43;;;;;;;6.88;4.20;;;;;;;;;;5051491;28;20497;-64
2021/03/12 09:57:09;;;;;;;6.97;3.60;;;;;;;;;;5045134;28;20043;-65
2021/03/12 09:59:37;;;;;;;10.60;4.30;;;;;;;;;;5037072;28;20012;-65
2021/03/12 10:02:03;;;;;;;10.00;3.63;;;;;;;;;;5058473;28;20051;-65
2021/03/12 10:04:32;;;;;;;7.53;4.93;;;;;;;;;;5051902;28;20726;-63
2021/03/12 10:06:59;;;;;;;5.45;3.88;;;;;;;;;;5046689;28;20037;-64
2021/03/12 10:09:24;;;;;;;7.72;4.13;;;;;;;;;;5048050;28;20049;-64
2021/03/12 10:11:50;;;;;;;8.10;4.32;;;;;;;;;;5058086;28;20024;-65
2021/03/12 10:14:25;;;;;;;5.78;4.28;;;;;;;;;;5042320;28;20737;-65
2021/03/12 10:17:00;;;;;;;6.20;4.38;;;;;;;;;;5042146;28;20032;-64
2021/03/12 10:19:25;;;;;;;6.72;4.40;;;;;;;;;;5054240;28;20028;-71
2021/03/12 10:21:51;;;;;;;8.13;3.65;;;;;;;;;;5052114;28;20505;-69
2021/03/12 10:24:16;;;;;;;7.20;3.88;;;;;;;;;;5062524;28;20032;-73
2021/03/12 10:26:42;;;;;;;13.55;4.03;;;;;;;;;;5058351;28;20020;-66
2021/03/12 10:29:08;;;;;;;8.88;4.40;;;;;;;;;;5056759;28;20029;-65
2021/03/12 10:31:39;;;;;;;5.60;3.97;;;;;;;;;;5055758;28;20027;-65
2021/03/12 10:34:04;;;;;;;16.35;5.43;;;;;;;;;;5058088;28;20055;-63
2021/03/12 10:36:29;;;;;;;9.27;4.55;;;;;;;;;;5056880;28;20060;-65
2021/03/12 10:38:55;;;;;;;12.05;4.70;;;;;;;;;;5056360;28;20456;-62
2021/03/12 10:41:22;;;;;;;6.65;4.55;;;;;;;;;;5053252;28;20021;-64
2021/03/12 10:43:56;;;;;;;4.72;4.10;;;;;;;;;;5057400;28;20025;-63
2021/03/12 10:46:21;;;;;;;6.10;3.95;;;;;;;;;;5068187;28;20034;-63
2021/03/12 10:48:47;;;;;;;11.35;3.95;;;;;;;;;;5066122;28;20519;-63
2021/03/12 10:51:14;;;;;;;6.25;4.15;;;;;;;;;;5058038;28;20070;-65
2021/03/12 10:53:43;;;;;;;9.30;4.10;;;;;;;;;;5061492;28;20020;-65
2021/03/12 10:56:09;;;;;;;6.35;3.83;;;;;;;;;;5052645;28;20088;-66
2021/03/12 10:58:35;;;;;;;8.75;3.45;;;;;;;;;;5059170;28;20139;-65
2021/03/12 11:01:10;;;;;;;12.05;4.05;;;;;;;;;;5058550;28;20017;-66
2021/03/12 11:03:36;;;;;;;5.35;3.33;;;;;;;;;;5060495;28;20021;-65
2021/03/12 11:06:03;;;;;;;11.20;4.05;;;;;;;;;;5051772;28;20052;-66
2021/03/12 11:08:28;;;;;;;5.95;2.97;;;;;;;;;;5059509;28;20538;-66
2021/03/12 11:10:55;;;;;;;5.45;2.53;;;;;;;;;;5059547;28;20131;-66
2021/03/12 11:13:20;;;;;;;3.75;2.80;;;;;;;;;;5058473;28;20024;-63
2021/03/12 11:15:46;;;;;;;3.28;1.95;;;;;;;;;;5067735;28;20365;-64
2021/03/12 11:18:11;;;;;;;5.03;2.30;;;;;;;;;;5059902;28;20013;-65
2021/03/12 11:20:36;;;;;;;4.68;3.10;;;;;;;;;;5057436;28;20033;-66
2021/03/12 11:23:02;;;;;;;5.25;3.47;;;;;;;;;;5056547;28;20020;-66
2021/03/12 11:25:27;;;;;;;5.22;3.50;;;;;;;;;;5060015;28;20385;-66
2021/03/12 11:27:53;;;;;;;8.32;3.55;;;;;;;;;;5050202;28;20142;-66
2021/03/12 11:30:19;;;;;;;7.25;3.00;;;;;;;;;;5064441;28;21056;-64
2021/03/12 11:32:45;;;;;;;8.63;2.70;;;;;;;;;;5065772;28;20539;-64
2021/03/12 11:35:11;;;;;;;101.32;8.20;;;;;;;;;;5058280;28;20148;-66
2021/03/12 11:37:37;;;;;;;435.92;42.45;;;;;;;;;;5058478;28;20020;-63
2021/03/12 11:40:03;;;;;;;7.53;1.50;;;;;;;;;;5052682;28;20025;-64
2021/03/12 11:42:29;;;;;;;15.82;1.75;;;;;;;;;;5044809;28;20096;-63
2021/03/12 11:44:54;;;;;;;3.20;0.80;;;;;;;;;;5048994;28;20104;-64
2021/03/12 11:47:20;;;;;;;12.93;1.45;;;;;;;;;;5053438;28;20025;-65
2021/03/12 11:49:47;;;;;;;0.47;0.30;;;;;;;;;;5050701;28;20401;-65
2021/03/12 11:52:13;;;;;;;9.02;0.73;;;;;;;;;;5049728;28;20013;-64
2021/03/12 11:54:39;;;;;;;4.40;0.75;;;;;;;;;;5046128;28;20028;-64
2021/03/12 11:57:04;;;;;;;4.05;0.50;;;;;;;;;;5050132;28;20017;-62
2021/03/12 11:59:30;;;;;;;0.90;0.40;;;;;;;;;;5051213;28;20025;-64
2021/03/12 12:01:57;;;;;;;4.40;0.50;;;;;;;;;;5058459;28;20094;-65
2021/03/12 12:04:23;;;;;;;6.35;1.13;;;;;;;;;;5058292;28;20025;-64
2021/03/12 12:06:48;;;;;;;23.98;1.88;;;;;;;;;;5055163;28;20020;-65
2021/03/12 12:09:14;;;;;;;8.15;1.20;;;;;;;;;;5053468;28;20469;-64
2021/03/12 12:11:39;;;;;;;5.07;0.45;;;;;;;;;;5056448;28;20091;-66
2021/03/12 12:14:04;;;;;;;6.47;0.77;;;;;;;;;;5054207;28;20382;-65
2021/03/12 12:16:31;;;;;;;4.97;1.15;;;;;;;;;;5069021;28;20024;-65
2021/03/12 12:18:57;;;;;;;3.60;0.40;;;;;;;;;;5055620;28;20036;-64
2021/03/12 12:21:22;;;;;;;5.18;0.57;;;;;;;;;;5049500;28;20485;-62
2021/03/12 12:23:48;;;;;;;8.90;0.82;;;;;;;;;;5056480;28;20023;-61
2021/03/12 12:26:14;;;;;;;3.95;0.50;;;;;;;;;;5059630;28;20033;-62
2021/03/12 12:28:39;;;;;;;3.03;0.50;;;;;;;;;;5063642;28;20032;-62
2021/03/12 12:31:04;;;;;;;6.85;1.42;;;;;;;;;;5044256;28;20033;-62
2021/03/12 12:33:30;;;;;;;1.98;0.60;;;;;;;;;;5052947;28;20115;-62
2021/03/12 12:35:56;;;;;;;1.48;0.45;;;;;;;;;;5040276;28;20628;-68
2021/03/12 12:38:21;;;;;;;3.00;0.65;;;;;;;;;;5048247;28;20499;-68
2021/03/12 12:40:47;;;;;;;4.03;0.73;;;;;;;;;;5050831;28;20028;-66
2021/03/12 12:43:12;;;;;;;3.40;0.50;;;;;;;;;;5050914;28;20016;-66
2021/03/12 12:45:38;;;;;;;2.60;0.70;;;;;;;;;;5046533;28;20017;-68
2021/03/12 12:48:03;;;;;;;7.93;1.05;;;;;;;;;;5039073;28;20048;-64
2021/03/12 12:50:29;;;;;;;1.75;0.60;;;;;;;;;;5056834;28;20032;-62
2021/03/12 12:52:56;;;;;;;13.70;1.02;;;;;;;;;;5048078;28;20028;-63
2021/03/12 12:55:22;;;;;;;1.83;0.70;;;;;;;;;;5056840;28;20021;-62
2021/03/12 12:57:47;;;;;;;4.22;0.73;;;;;;;;;;5052094;28;20503;-61
2021/03/12 13:00:13;;;;;;;21.02;1.63;;;;;;;;;;5056044;28;20023;-63
2021/03/12 13:02:39;;;;;;;11.20;1.02;;;;;;;;;;5030049;28;20032;-62
2021/03/12 13:05:05;;;;;;;4.55;0.80;;;;;;;;;;5039127;28;20021;-62
2021/03/12 13:07:31;;;;;;;3.88;0.65;;;;;;;;;;5045254;28;20024;-62
2021/03/12 13:09:56;;;;;;;3.72;0.65;;;;;;;;;;5046235;28;20052;-63
2021/03/12 13:12:23;;;;;;;4.55;0.60;;;;;;;;;;5036789;28;20029;-63
2021/03/12 13:14:50;;;;;;;1.20;0.68;;;;;;;;;;5050277;28;20066;-64
2021/03/12 13:17:17;;;;;;;2.33;0.70;;;;;;;;;;5042383;28;20026;-62
2021/03/12 13:19:43;;;;;;;4.07;0.95;;;;;;;;;;5043019;28;20024;-63
2021/03/12 13:22:08;;;;;;;5.47;0.80;;;;;;;;;;5039612;28;20406;-61
2021/03/12 13:24:33;;;;;;;4.82;0.45;;;;;;;;;;5039097;28;20028;-61
2021/03/12 13:26:59;;;;;;;3.67;0.82;;;;;;;;;;5062134;28;20461;-61
2021/03/12 13:29:24;;;;;;;14.48;1.77;;;;;;;;;;5060328;28;20072;-63
2021/03/12 13:31:49;;;;;;;14.77;1.40;;;;;;;;;;5053520;28;20530;-64
2021/03/12 13:34:15;;;;;;;5.00;1.13;;;;;;;;;;5049670;28;20033;-64
2021/03/12 13:36:40;;;;;;;3.40;0.70;;;;;;;;;;5039136;28;20028;-63
2021/03/12 13:39:06;;;;;;;8.18;1.33;;;;;;;;;;5042970;28;20023;-62
2021/03/12 13:41:32;;;;;;;5.97;0.80;;;;;;;;;;5044603;28;20021;-61
2021/03/12 13:43:58;;;;;;;2.55;0.75;;;;;;;;;;5049607;28;20053;-62
2021/03/12 13:46:23;;;;;;;6.72;0.63;;;;;;;;;;5044690;28;20490;-62
2021/03/12 13:48:48;;;;;;;4.88;0.80;;;;;;;;;;5048355;28;20432;-62
2021/03/12 13:51:14;;;;;;;4.40;0.95;;;;;;;;;;5051280;28;20039;-63
2021/03/12 13:53:39;;;;;;;5.78;1.10;;;;;;;;;;5049824;28;20024;-63
2021/03/12 13:56:05;;;;;;;0.85;0.63;;;;;;;;;;5044587;28;20126;-61
2021/03/12 13:58:30;;;;;;;10.80;0.98;;;;;;;;;;5030500;28;20147;-63
2021/03/12 14:00:55;;;;;;;3.80;1.00;;;;;;;;;;5049030;28;20417;-60
2021/03/12 14:03:21;;;;;;;13.55;2.00;;;;;;;;;;5034637;28;20023;-62
2021/03/12 14:05:46;;;;;;;1.35;0.40;;;;;;;;;;5040967;28;20075;-62
2021/03/12 14:08:11;;;;;;;0.98;0.82;;;;;;;;;;5038668;28;20017;-62
2021/03/12 14:10:37;;;;;;;2.20;0.63;;;;;;;;;;5049931;28;20083;-61
2021/03/12 14:13:03;;;;;;;4.85;0.70;;;;;;;;;;5054719;28;20411;-62
2021/03/12 14:15:28;;;;;;;0.88;0.30;;;;;;;;;;5054380;28;20071;-62
2021/03/12 14:17:54;;;;;;;3.38;0.70;;;;;;;;;;5049290;28;20017;-62
2021/03/12 14:20:19;;;;;;;1.05;0.50;;;;;;;;;;5051283;28;20033;-61
2021/03/12 14:22:46;;;;;;;1.02;0.50;;;;;;;;;;5050672;28;20552;-62
2021/03/12 14:35:38;;;;;;;1.75;0.70;;;;;;;;;;5108963;27;20363;-62
2021/03/12 14:38:04;;;;;;;3.38;0.77;;;;;;;;;;5109885;28;20103;-62
2021/03/12 14:40:30;;;;;;;2.78;0.70;;;;;;;;;;5109948;28;20023;-62
2021/03/12 14:42:57;;;;;;;5.20;0.70;;;;;;;;;;5110512;28;20008;-62
2021/03/12 14:45:22;;;;;;;0.40;0.40;;;;;;;;;;5110198;28;20070;-62
2021/03/12 14:47:48;;;;;;;1.35;1.00;;;;;;;;;;5075224;28;20027;-62
2021/03/12 14:50:13;;;;;;;2.78;0.70;;;;;;;;;;5110293;28;20023;-62
2021/03/12 14:52:39;;;;;;;3.20;0.63;;;;;;;;;;5092506;28;20012;-62
2021/03/12 14:55:06;;;;;;;2.88;1.52;;;;;;;;;;5110359;28;20464;-62
2021/03/12 14:57:32;;;;;;;1.40;0.70;;;;;;;;;;5109833;28;20480;-61
2021/03/12 14:59:57;;;;;;;4.22;0.80;;;;;;;;;;5092021;28;20023;-62
2021/03/12 15:02:22;;;;;;;3.38;0.77;;;;;;;;;;5109925;28;20031;-62
2021/03/12 15:04:49;;;;;;;1.73;1.02;;;;;;;;;;5091739;28;20020;-61
2021/03/12 15:07:14;;;;;;;2.08;0.80;;;;;;;;;;5109982;28;20039;-62
2021/03/12 15:09:40;;;;;;;4.35;1.23;;;;;;;;;;5109766;28;20016;-62
2021/03/12 15:12:05;;;;;;;2.90;1.10;;;;;;;;;;5110088;28;20102;-62
2021/03/12 15:14:31;;;;;;;0.93;0.70;;;;;;;;;;5109918;28;20081;-62
2021/03/12 15:16:56;;;;;;;3.67;0.77;;;;;;;;;;5091705;28;20012;-62
2021/03/12 15:19:21;;;;;;;3.60;0.80;;;;;;;;;;5109631;28;20042;-63
2021/03/12 15:21:48;;;;;;;1.73;0.60;;;;;;;;;;5091729;28;20020;-62
2021/03/12 15:24:13;;;;;;;4.47;0.70;;;;;;;;;;5109646;28;20012;-62
2021/03/12 15:26:39;;;;;;;2.53;0.90;;;;;;;;;;5108273;28;20016;-63
2021/03/12 15:29:06;;;;;;;1.95;0.80;;;;;;;;;;5109734;28;20016;-63
2021/03/12 15:31:32;;;;;;;1.70;0.80;;;;;;;;;;5090444;28;20012;-62
2021/03/12 15:33:57;;;;;;;1.73;0.90;;;;;;;;;;5090974;28;20058;-62
2021/03/12 15:36:23;;;;;;;3.75;0.80;;;;;;;;;;5109744;28;20016;-62
2021/03/12 15:38:48;;;;;;;2.38;0.80;;;;;;;;;;5091179;28;20019;-62
2021/03/12 15:41:13;;;;;;;4.70;0.90;;;;;;;;;;5091232;28;20030;-62
2021/03/12 15:43:39;;;;;;;2.25;0.82;;;;;;;;;;5091016;28;20027;-62
2021/03/12 15:46:04;;;;;;;3.75;0.70;;;;;;;;;;5100598;28;20020;-62
2021/03/12 15:48:30;;;;;;;2.00;0.63;;;;;;;;;;5077523;28;20379;-62
2021/03/12 15:50:55;;;;;;;3.20;1.00;;;;;;;;;;5077870;28;20447;-62
2021/03/12 15:53:21;;;;;;;2.75;0.90;;;;;;;;;;5077097;28;20023;-62
2021/03/12 15:55:46;;;;;;;3.20;0.80;;;;;;;;;;5077725;28;20043;-62
2021/03/12 15:58:11;;;;;;;2.08;0.70;;;;;;;;;;5095600;28;20024;-62
2021/03/12 16:00:37;;;;;;;10.32;1.17;;;;;;;;;;5094968;28;20468;-62
2021/03/12 16:03:02;;;;;;;11.73;0.95;;;;;;;;;;5077224;28;20047;-62
2021/03/12 16:05:28;;;;;;;6.30;1.25;;;;;;;;;;5060161;28;20651;-61
2021/03/12 16:07:54;;;;;;;190.60;9.60;;;;;;;;;;5077268;28;20032;-62
2021/03/12 16:10:20;;;;;;;57.08;6.55;;;;;;;;;;5077419;28;20032;-62
2021/03/12 16:12:45;;;;;;;15.60;3.65;;;;;;;;;;5077538;28;20026;-62
2021/03/12 16:15:11;;;;;;;9.50;3.05;;;;;;;;;;5095066;28;20031;-63
2021/03/12 16:17:37;;;;;;;4.80;2.30;;;;;;;;;;5095008;28;20016;-62
2021/03/12 16:20:05;;;;;;;7.25;3.50;;;;;;;;;;5077126;28;20016;-62
2021/03/12 16:22:31;;;;;;;9.68;3.58;;;;;;;;;;5094988;28;20024;-62
2021/03/12 16:24:57;;;;;;;19.42;5.05;;;;;;;;;;5077332;28;20016;-62
2021/03/12 16:27:22;;;;;;;9.93;3.47;;;;;;;;;;5059585;28;20483;-62
2021/03/12 16:29:48;;;;;;;14.20;4.65;;;;;;;;;;5095157;28;20027;-62
2021/03/12 16:32:15;;;;;;;11.63;4.45;;;;;;;;;;5075970;28;20596;-62
2021/03/12 16:34:41;;;;;;;10.15;3.95;;;;;;;;;;5094417;28;20122;-62
2021/03/12 16:37:07;;;;;;;11.35;4.18;;;;;;;;;;5059781;28;20046;-62
2021/03/12 16:39:32;;;;;;;25.17;6.28;;;;;;;;;;5076676;28;20024;-62
2021/03/12 16:41:58;;;;;;;24.85;5.85;;;;;;;;;;5076800;28;20496;-62
2021/03/12 16:44:23;;;;;;;14.52;5.68;;;;;;;;;;5076283;28;20422;-62
2021/03/12 16:46:49;;;;;;;13.65;4.70;;;;;;;;;;5076236;28;20023;-62
2021/03/12 16:49:15;;;;;;;23.70;5.68;;;;;;;;;;5076139;28;20077;-62
2021/03/12 16:51:42;;;;;;;18.75;5.78;;;;;;;;;;5076374;28;20024;-62
2021/03/12 16:54:07;;;;;;;31.80;9.18;;;;;;;;;;5094446;28;20020;-62
2021/03/12 16:56:33;;;;;;;33.83;10.98;;;;;;;;;;5093830;28;20095;-62
2021/03/12 16:58:58;;;;;;;35.72;11.02;;;;;;;;;;5093772;28;20054;-62
2021/03/12 17:01:23;;;;;;;54.30;15.77;;;;;;;;;;5093199;28;20024;-61
2021/03/12 17:03:49;;;;;;;50.08;14.25;;;;;;;;;;5094462;28;20107;-62
2021/03/12 17:06:14;;;;;;;49.53;12.55;;;;;;;;;;5075872;28;20047;-62
2021/03/12 17:08:40;;;;;;;40.33;12.27;;;;;;;;;;5094225;28;20384;-61
2021/03/12 17:11:05;;;;;;;45.88;16.17;;;;;;;;;;5094271;28;20027;-62
2021/03/12 17:13:30;;;;;;;75.70;26.48;;;;;;;;;;5093490;28;20105;-62
2021/03/12 17:15:56;;;;;;;85.40;29.92;;;;;;;;;;5075847;28;20020;-62
2021/03/12 17:18:21;;;;;;;65.82;23.10;;;;;;;;;;5093814;28;20013;-63
2021/03/12 17:20:47;;;;;;;66.20;22.40;;;;;;;;;;5094065;28;20023;-62
2021/03/12 17:23:12;;;;;;;30.45;11.60;;;;;;;;;;5093563;28;20047;-62
2021/03/12 17:25:38;;;;;;;27.80;9.90;;;;;;;;;;5075696;28;20028;-62
2021/03/12 17:28:04;;;;;;;26.88;10.50;;;;;;;;;;5075695;28;20016;-62
2021/03/12 17:30:29;;;;;;;29.27;9.80;;;;;;;;;;5093103;28;20016;-62
2021/03/12 17:32:56;;;;;;;9.77;3.10;;;;;;;;;;5075417;28;20016;-62
2021/03/12 17:35:22;;;;;;;11.35;4.07;;;;;;;;;;5092938;28;20492;-63
2021/03/12 17:37:47;;;;;;;8.65;4.25;;;;;;;;;;5075747;28;20069;-62
2021/03/12 17:40:13;;;;;;;10.85;4.00;;;;;;;;;;5075320;28;20012;-62
2021/03/12 17:42:39;;;;;;;12.30;4.07;;;;;;;;;;5075251;28;20023;-62
2021/03/12 17:45:06;;;;;;;7.55;2.30;;;;;;;;;;5075446;28;20012;-61
2021/03/12 17:47:31;;;;;;;4.93;2.28;;;;;;;;;;5093294;28;20028;-61
2021/03/12 17:49:57;;;;;;;4.95;2.10;;;;;;;;;;5075414;28;20030;-61
2021/03/12 17:52:22;;;;;;;8.07;2.58;;;;;;;;;;5093098;28;20034;-62
2021/03/12 17:54:48;;;;;;;6.90;2.92;;;;;;;;;;5093089;28;20024;-62
2021/03/12 17:57:13;;;;;;;13.05;3.80;;;;;;;;;;5075165;28;20020;-62
2021/03/12 17:59:38;;;;;;;8.48;4.10;;;;;;;;;;5092920;28;20422;-62
2021/03/12 18:02:04;;;;;;;3.20;1.50;;;;;;;;;;5074468;28;20043;-62
2021/03/12 18:04:29;;;;;;;7.35;3.00;;;;;;;;;;5074988;28;20019;-61
2021/03/12 18:06:55;;;;;;;13.52;3.60;;;;;;;;;;5075071;28;20016;-62
2021/03/12 18:09:20;;;;;;;14.45;4.80;;;;;;;;;;5074404;28;20024;-62
2021/03/12 18:11:46;;;;;;;16.02;8.85;;;;;;;;;;5093057;28;20073;-62
2021/03/12 18:14:11;;;;;;;14.88;3.72;;;;;;;;;;5093153;28;20049;-61
2021/03/12 18:16:37;;;;;;;7.00;3.22;;;;;;;;;;5074709;28;20077;-63
2021/03/12 18:19:02;;;;;;;2.25;1.30;;;;;;;;;;5074900;28;20024;-62
2021/03/12 18:21:28;;;;;;;6.78;1.55;;;;;;;;;;5057830;28;20064;-62
2021/03/12 18:23:53;;;;;;;9.63;3.72;;;;;;;;;;5074806;28;20429;-62
2021/03/12 18:26:18;;;;;;;8.35;2.78;;;;;;;;;;5057983;28;20012;-62
2021/03/12 18:28:45;;;;;;;6.43;3.15;;;;;;;;;;5075087;28;20016;-62
2021/03/12 18:31:11;;;;;;;5.47;2.53;;;;;;;;;;5092137;28;20050;-63
2021/03/12 18:33:36;;;;;;;8.38;2.40;;;;;;;;;;5057386;28;20047;-62
2021/03/12 18:36:02;;;;;;;9.77;3.63;;;;;;;;;;5074918;28;20035;-62
2021/03/12 18:38:28;;;;;;;6.18;3.78;;;;;;;;;;5074561;28;20016;-61
2021/03/12 18:40:54;;;;;;;12.93;4.22;;;;;;;;;;5092593;28;20111;-62
2021/03/12 18:43:19;;;;;;;13.65;5.95;;;;;;;;;;5092360;28;20027;-62
2021/03/12 18:45:44;;;;;;;20.70;7.82;;;;;;;;;;5092904;28;20020;-62
2021/03/12 18:48:10;;;;;;;21.02;9.50;;;;;;;;;;5092762;28;20024;-62
2021/03/12 18:50:35;;;;;;;5.28;2.83;;;;;;;;;;5092787;28;20024;-62
2021/03/12 18:53:01;;;;;;;5.75;3.10;;;;;;;;;;5092906;28;20020;-62
2021/03/12 18:55:26;;;;;;;9.60;5.13;;;;;;;;;;5074250;28;20403;-62
2021/03/12 18:57:52;;;;;;;7.38;4.40;;;;;;;;;;5074448;28;20486;-61
2021/03/12 19:00:18;;;;;;;10.63;4.20;;;;;;;;;;5091879;28;20016;-62
2021/03/12 19:02:44;;;;;;;10.30;5.70;;;;;;;;;;5092385;28;20077;-62
2021/03/12 19:05:10;;;;;;;10.45;4.03;;;;;;;;;;5092800;28;20089;-62
2021/03/12 19:07:35;;;;;;;6.40;3.47;;;;;;;;;;5074078;28;20477;-62
2021/03/12 19:10:01;;;;;;;18.10;5.95;;;;;;;;;;5074560;28;20016;-62
2021/03/12 19:12:26;;;;;;;30.38;12.13;;;;;;;;;;5074127;28;20460;-63
2021/03/12 19:14:52;;;;;;;12.27;7.60;;;;;;;;;;5092343;28;20038;-62
2021/03/12 19:17:18;;;;;;;7.68;4.70;;;;;;;;;;5073923;28;20016;-62
2021/03/12 19:19:43;;;;;;;11.45;5.22;;;;;;;;;;5074128;28;20027;-63
2021/03/12 19:22:09;;;;;;;14.43;8.23;;;;;;;;;;5095620;28;20379;-62
2021/03/12 19:24:34;;;;;;;18.88;8.73;;;;;;;;;;5096136;28;20024;-63
2021/03/12 19:27:02;;;;;;;11.63;5.05;;;;;;;;;;5077971;28;20035;-62
2021/03/12 19:29:27;;;;;;;8.85;4.25;;;;;;;;;;5077951;28;20024;-63
2021/03/12 19:31:53;;;;;;;6.45;3.30;;;;;;;;;;5095534;28;20026;-63
2021/03/12 19:34:18;;;;;;;6.25;3.55;;;;;;;;;;5060803;28;20051;-62
2021/03/12 19:36:44;;;;;;;10.27;4.75;;;;;;;;;;5077755;28;20024;-62
2021/03/12 19:39:09;;;;;;;9.75;5.05;;;;;;;;;;5077600;28;20095;-62
2021/03/12 19:41:36;;;;;;;9.15;4.40;;;;;;;;;;5095629;28;20024;-62
2021/03/12 19:44:02;;;;;;;13.18;7.03;;;;;;;;;;5077599;28;20023;-62
2021/03/12 19:46:27;;;;;;;10.73;4.72;;;;;;;;;;5077304;28;20024;-63
2021/03/12 19:48:53;;;;;;;8.05;4.38;;;;;;;;;;5077883;28;20012;-63
2021/03/12 19:51:18;;;;;;;10.95;5.68;;;;;;;;;;5095523;28;20016;-62
2021/03/12 19:53:43;;;;;;;9.65;6.43;;;;;;;;;;5077463;28;20372;-62
2021/03/12 19:56:09;;;;;;;10.27;6.13;;;;;;;;;;5095455;28;20028;-62
2021/03/12 19:58:34;;;;;;;13.25;5.05;;;;;;;;;;5095513;28;20016;-63
2021/03/12 20:01:00;;;;;;;9.00;5.13;;;;;;;;;;5076877;28;20391;-63
2021/03/12 20:03:26;;;;;;;13.23;5.03;;;;;;;;;;5095148;28;20024;-63
2021/03/12 20:05:51;;;;;;;9.90;4.65;;;;;;;;;;5095468;28;20017;-62
2021/03/12 20:08:17;;;;;;;9.15;3.80;;;;;;;;;;5077149;28;20376;-62
2021/03/12 20:10:43;;;;;;;7.10;3.75;;;;;;;;;;5077086;28;20030;-62
2021/03/12 20:13:08;;;;;;;7.30;4.55;;;;;;;;;;5095481;28;20050;-62
2021/03/12 20:15:34;;;;;;;7.65;3.30;;;;;;;;;;5060136;28;20028;-62
2021/03/12 20:17:59;;;;;;;8.07;3.58;;;;;;;;;;5076893;28;20020;-62
2021/03/12 20:20:25;;;;;;;8.23;4.40;;;;;;;;;;5077085;28;20434;-62
2021/03/12 20:22:50;;;;;;;5.72;3.30;;;;;;;;;;5095313;28;20547;-62
2021/03/12 20:25:15;;;;;;;7.25;3.58;;;;;;;;;;5091990;28;20385;-62
2021/03/12 20:27:41;;;;;;;11.40;3.70;;;;;;;;;;5094487;28;20380;-62
2021/03/12 20:30:08;;;;;;;6.03;3.42;;;;;;;;;;5059299;28;20369;-62
2021/03/12 20:32:33;;;;;;;7.60;3.22;;;;;;;;;;5094561;28;20146;-62
2021/03/12 20:34:58;;;;;;;10.52;3.42;;;;;;;;;;5076396;28;20560;-62
2021/03/12 20:37:24;;;;;;;7.78;4.40;;;;;;;;;;5094380;28;20060;-62
2021/03/12 20:39:49;;;;;;;8.95;3.75;;;;;;;;;;5076587;28;20115;-62
2021/03/12 20:42:15;;;;;;;11.50;4.13;;;;;;;;;;5076606;28;20016;-62
2021/03/12 20:44:40;;;;;;;7.20;3.90;;;;;;;;;;5076553;28;20027;-62
2021/03/12 20:47:06;;;;;;;7.35;4.43;;;;;;;;;;5059764;28;20077;-62
2021/03/12 20:49:31;;;;;;;12.60;4.90;;;;;;;;;;5076169;28;20023;-62
2021/03/12 20:51:56;;;;;;;10.23;6.03;;;;;;;;;;5076347;28;20089;-62
2021/03/12 20:54:23;;;;;;;11.20;5.40;;;;;;;;;;5076117;28;20020;-61
2021/03/12 20:56:51;;;;;;;11.68;5.38;;;;;;;;;;5076646;28;20400;-61
2021/03/12 20:59:17;;;;;;;12.35;5.35;;;;;;;;;;5094115;28;20023;-62
2021/03/12 21:01:42;;;;;;;9.98;4.53;;;;;;;;;;5093720;28;20023;-61
2021/03/12 21:04:08;;;;;;;9.57;4.82;;;;;;;;;;5094235;28;20024;-61
2021/03/12 21:06:33;;;;;;;11.77;5.95;;;;;;;;;;5059343;28;20019;-62
2021/03/12 21:08:59;;;;;;;12.05;5.70;;;;;;;;;;5076177;28;20026;-61
2021/03/12 21:11:24;;;;;;;11.68;5.30;;;;;;;;;;5094113;28;20028;-61
2021/03/12 21:13:49;;;;;;;11.65;6.47;;;;;;;;;;5075878;28;20231;-61
2021/03/12 21:16:15;;;;;;;16.50;6.40;;;;;;;;;;5076050;28;20020;-62
2021/03/12 21:18:40;;;;;;;16.25;7.05;;;;;;;;;;5093895;28;20016;-61
2021/03/12 21:21:06;;;;;;;12.20;6.30;;;;;;;;;;5075791;28;20031;-61
2021/03/12 21:23:32;;;;;;;11.05;6.55;;;;;;;;;;5093784;28;20020;-62
2021/03/12 21:25:57;;;;;;;11.00;6.00;;;;;;;;;;5059072;28;20388;-61
2021/03/12 21:28:22;;;;;;;12.65;5.85;;;;;;;;;;5075562;28;20503;-61
2021/03/12 21:30:48;;;;;;;13.15;5.35;;;;;;;;;;5074920;28;20102;-62
2021/03/12 21:33:14;;;;;;;9.25;5.38;;;;;;;;;;5074801;28;20032;-62
2021/03/12 21:35:40;;;;;;;9.98;5.32;;;;;;;;;;5093263;28;20086;-62
2021/03/12 21:38:06;;;;;;;11.93;5.75;;;;;;;;;;5075798;28;20048;-61
2021/03/12 21:40:31;;;;;;;9.32;5.95;;;;;;;;;;5093682;28;20091;-62
2021/03/12 21:42:57;;;;;;;10.52;5.13;;;;;;;;;;5093292;28;20004;-62
2021/03/12 21:45:22;;;;;;;10.57;5.35;;;;;;;;;;5093306;28;20487;-61
2021/03/12 21:47:48;;;;;;;10.68;5.50;;;;;;;;;;5093527;28;20034;-62
2021/03/12 21:50:16;;;;;;;12.05;5.40;;;;;;;;;;5058738;28;20099;-62
2021/03/12 21:52:42;;;;;;;9.30;4.78;;;;;;;;;;5093352;28;20048;-62